Elgin, Pennsylvania
Current Conditions -  °F | °C
As of 1:51 PM on Sunday 21 Dec 2014 (Local Time) from KERI Reporting Station
Overcast Overcast  
Wind Chill: 29°   Ceiling: 2600
Heat Index: 33°   Visibility: 10mi
Dew Point: 23°   Wind: 5mph
Humidity: 66%   Direction: 170°S
Pressure: 30.28"   Gusts: NA
Location:  41.9°N, 79.74°W
Report Text: KERI 211851Z 17004KT 10SM OVC026 01/M05 A3028 RMK AO2 SLP261 T00061050
Loading
Personal Weather Stations






























Interactive Weather Map New forecast layout! Learn more

10-Day Weather Forecast

Advertisements
Track Severe Weather on mobile